createdAt,value
2022-12-18T00:18:29.114Z,17.1
2022-12-18T00:48:29.405Z,17.0
2022-12-18T01:18:29.167Z,17.0
2022-12-18T01:48:29.424Z,16.9
2022-12-18T02:18:29.422Z,16.8
2022-12-18T02:48:29.431Z,16.8
2022-12-18T03:18:29.404Z,16.7
2022-12-18T03:48:29.415Z,16.7
2022-12-18T04:18:29.137Z,16.7
2022-12-18T04:48:29.415Z,16.6
2022-12-18T05:18:29.463Z,16.6
2022-12-18T05:48:29.422Z,16.6
2022-12-18T06:18:29.480Z,17.0
2022-12-18T06:48:29.468Z,17.4
2022-12-18T07:18:29.498Z,17.7
2022-12-18T07:48:29.472Z,18.0
2022-12-18T08:18:29.508Z,18.2
2022-12-18T08:48:29.472Z,18.5
2022-12-18T09:18:29.449Z,18.8
2022-12-18T09:48:29.442Z,18.9
2022-12-18T10:18:29.512Z,19.0
2022-12-18T10:48:29.462Z,18.9
2022-12-18T11:18:29.480Z,18.9
2022-12-18T11:48:29.484Z,19.1
2022-12-18T12:18:29.463Z,19.1
2022-12-18T12:48:29.628Z,19.1
2022-12-18T13:18:29.629Z,19.2
2022-12-18T13:48:29.485Z,19.2
2022-12-18T14:18:29.442Z,19.3
2022-12-18T14:48:29.474Z,19.3
2022-12-18T15:18:29.168Z,19.3
2022-12-18T15:48:29.489Z,19.3
2022-12-18T16:18:29.443Z,19.4
2022-12-18T16:48:29.439Z,19.5
2022-12-18T17:18:29.510Z,19.5
2022-12-18T17:48:29.497Z,19.6
2022-12-18T18:18:29.463Z,19.6
2022-12-18T18:48:29.479Z,19.6
2022-12-18T19:18:29.467Z,19.6
2022-12-18T19:48:29.453Z,19.5
2022-12-18T20:18:29.478Z,19.4
2022-12-18T20:48:29.446Z,19.3
2022-12-18T21:18:29.472Z,19.1
2022-12-18T21:48:29.152Z,19.1
2022-12-18T22:18:29.449Z,18.8
2022-12-18T22:48:29.473Z,18.7
2022-12-18T23:18:29.439Z,18.6
2022-12-18T23:48:29.480Z,18.5
